Preview of NWS' New Version of Forecast
This preview is not operational and should not be used for support decisions.
Latest weather observations around

KNEELAND (KNNC1)

Using English Units (Switch to International System of Units)
Date/ Time (PST) Wind (mph) Vis. (mi) Weather Sky Cond. Temp (°F) Rel. Humidity Wind Chill (°F) Heat Index (°F) Pressure Precip. (in)
Air Dwpt 6 hour Altimeter (inHg) Sea level (inHg) 1 hr 3 hr 6 hr
Max Min
Feb 19 18:55 N 4   Clear   27 26     97% 22            
Feb 19 17:55 N 4   Clear   28 27     97% 23            
Feb 19 16:55 NNW 8   Clear   30 30     98% 22            
Feb 19 15:55 NW 10   Clear   32 31     98% 24            
Feb 19 14:55 NW 9   Clear   34 33     97% 27            
Feb 19 13:55 NW 12   Clear   33 32     97% 24            
Feb 19 12:55 N 6   Clear   33 32     97% 27            
Feb 19 11:55 NNW 5   Clear   32 31     98% 27            
Feb 19 10:55 N 5   Clear   32 31     97% 27            
Feb 19 09:55 N 6   Clear   29 28     96% 23            
Feb 19 08:55 NNE 7   Clear   28 27     96% 21            
Feb 19 07:55 NNE 5   Clear   27 26     97% 21            
Feb 19 06:55 NNE 6   Clear   27 26     97% 20            
Feb 19 05:55 NNW 6   Clear   27 26     97% 20            
Feb 19 04:55 NNW 4   Clear   27 26     97% 22            
Feb 19 03:55 NE 3   Clear   27 26     97% 24            
Feb 19 02:55 NNW 4   Clear   27 26     97% 22            
Feb 19 01:55 NNE 6   Clear   27 26     97% 20            
Feb 19 00:55 NNW 4   Clear   27 26     97% 22            
Feb 18 23:55 NW 14   Clear   27 26     97% 16            
Feb 18 22:55 NW 10   Clear   27 26     97% 18            
Feb 18 21:55 N 6   Clear   27 26     97% 20            
Feb 18 20:55 N 7   Clear   28 27     97% 21            
Feb 18 19:55 N 7   Clear   28 27     97% 21            
Feb 18 18:55 NNW 9   Clear   28 28     98% 19            
Feb 18 17:55 NNW 7   Clear   28 28     98% 21            
Feb 18 16:55 WNW 18   Clear   29 29     98% 17            
Feb 18 15:55 NW 16   Clear   29 28     97% 17            
Feb 18 14:55 NW 13   Clear   31 30     96% 21            
Feb 18 13:55 WNW 13   Clear   31 30     97% 21            
Feb 18 12:55 NW 10   Clear   31 31     98% 22            
Feb 18 11:55 NNW 9   Clear   32 31     98% 24            
Feb 18 10:55 NW 19   Clear   31 31     100% 19            
Feb 18 09:55 NW 13   Clear   32 32     100% 22            
Feb 18 08:55 WNW 14   Clear   33 33     100% 23            
Feb 18 07:55 NW 14   Clear   32 32     100% 22            
Feb 18 06:55 NW 10   Clear   34 34     100% 26            
Feb 18 05:55 NW 11   Clear   33 33     100% 24            
Feb 18 04:55 NW 8   Clear   35 35     100% 29            
Feb 18 03:55 NW 12   Clear   35 35     100% 27            
Feb 18 02:55 NW 9   Clear   36 36     100% 29            
Feb 18 01:55 WNW 9   Clear   38 38     100% 32            
Feb 18 00:55 W 9   Clear   39 39     100% 33            
Feb 17 23:55 SW 5   Clear   39 39     100% 35            
Feb 17 22:55 W 5   Clear   39 39     100% 35            
Feb 17 21:55 WNW 6   Clear   39 39     100% 35            
Feb 17 20:55 W 6   Clear   40 40     100% 36            
Feb 17 19:55 W 8   Clear   40 40     100% 35            
Feb 17 18:55 W 4   Clear   42 42     100% 40            
Feb 17 17:55 SW 3   Clear   43 42     98% 42            
Feb 17 16:55 SW 5   Clear   47 44     90% 45            
Feb 17 15:55 WSW 3   Clear   53 46     77%              
Feb 17 12:55 NE 3   Clear   51 44     76%              
Feb 17 11:55 N 3   Clear   51 43     73%              
Feb 17 10:55 N 5   Clear   50 42     75% 48            
Feb 17 09:55 NNE 6   Clear   48 40     73% 45            
Feb 17 08:55 N 2   Clear   47 36     65%              
Feb 17 07:55 NE 4   Clear   43 34     71% 41            
Feb 17 06:55 N 5   Clear   40 34     78% 36            
Feb 17 05:55 NNW 5   Clear   40 32     73% 36            
Feb 17 04:55 NNW 3   Clear   41 33     73% 39            
Feb 17 03:55 N 4   Clear   41 33     74% 38            
Feb 17 02:55 NNE 5   Clear   41 32     69% 38            
Feb 17 01:55 N 5   Clear   41 30     64% 38            
Feb 17 00:55 ENE 3   Clear   42 29     59% 41            
Feb 16 23:55 NNE 3   Clear   40 30     67% 38            
Feb 16 22:55 ENE 5   Clear   39 31     73% 35            
Feb 16 21:55 ENE 4   Clear   40 31     71% 37            
Feb 16 20:55 NE 2   Clear   36 35     97%              
Feb 16 19:55 N 4   Clear   36 35     95% 33            
Jun 11 21:55 NNW 7   Clear   44 44     100% 40            
Jun 11 12:55 NW 7   Clear   46 42     86% 42            
Jun 11 07:55 N 5   Clear   40 40     99% 36            
Jun 09 18:55 WNW 7   Clear   47 43     87% 44            
Jun 06 11:55 SW 3   Clear   58 53     84%              
Jun 06 07:55 NNW 1   Clear   58 47     68%              
Jun 06 02:55 E 3   Clear   42 42     100% 41            
Notice The following observation data may not be complete
Jun 05 14:55 N 4   Clear     51      %